Bee Bayou, Louisiana
Current Conditions -  °F | °C
As of 1:53 PM on Friday 31 Oct 2014 (Local Time) from KMLU Reporting Station
Few Clouds Few Clouds  
Wind Chill: 68°   Ceiling: Unl
Heat Index: 68°   Visibility: 10mi
Dew Point: 46°   Wind: 14mph
Humidity: 45%   Direction: 340°NNW
Pressure: 30.15"   Gusts: 24mph
Location:  32.4475°N, 91.7992°W
Report Text: KMLU 311853Z 34012G21KT 10SM FEW043 20/08 A3015 RMK AO2 SLP208 T02000078
Loading
Personal Weather Stations






























Interactive Weather Map
Tropical Storm Tracking
New forecast layout! Learn more

10-Day Weather Forecast

Advertisements
Track Severe Weather on mobile